Race summary (Track: Indianapolis | Season: 97 | Race: 10 | Group: Rookie - 105)

Season:  Race:

Select another group:

Pos Progress Tyres Nat Manager name Race time Laps Pitstops Best lap Average speed Best pit time
01. No change ±0 Pipirelli   Evgeny Rafalsky 1h52:02.477 73 2 1:19.817 164.19km/h 31.398s
02. +4 +4 Pipirelli   Bruno Ferrari + 26.084 73 3 1:19.926 163.55km/h 21.103s
03. +4 +4 Pipirelli   Danilo Isidro + 1:19.099 73 3 1:20.015 162.28km/h 21.405s
04. +10 +10 Pipirelli   Marcelo Junges + 1:37.454 72 2 1:20.101 161.84km/h 21.792s
05. +4 +4 Pipirelli   Simon Liu + 1:54.997 72 2 1:20.650 161.43km/h 30.926s
06. +18 +18 Pipirelli   Amirton Chagas + 1:55.030 72 2 1:20.252 161.43km/h 26.155s
07. -4 -4 Pipirelli   Sophos Utm + 2:07.666 72 4 1:20.934 161.13km/h 25.402s
08. -3 -3 Pipirelli   Jac Wild + 2:14.968 72 4 1:19.061 160.96km/h 21.556s
09. -7 -7 Pipirelli   Daniel Veiga + 2:32.178 72 3 1:20.877 160.55km/h 20.785s
10. +6 +6 Pipirelli   Kamen Zlatinov + 2:32.669 72 4 1:21.430 160.54km/h 22.656s
11. -1 -1 Pipirelli   Edison Leite + 2:40.416 72 4 1:20.791 160.36km/h 22.604s
12. +6 +6 Pipirelli   Alex Norris + 2:40.992 72 4 1:21.227 160.35km/h 21.318s
13. -9 -9 Pipirelli   Yaami Tachi + 2:50.495 72 4 1:21.055 160.13km/h 22.118s
14. -1 -1 Pipirelli   Francois Visagie + 3:10.245 71 3 1:21.562 159.67km/h 26.200s
15. -3 -3 Pipirelli   Kelvin Williams + 3:14.405 71 3 1:21.324 159.57km/h 26.076s
16. -5 -5 Pipirelli   Reeky Kestrel + 3:26.878 71 3 1:21.140 159.29km/h 22.638s
17. -2 -2 Pipirelli   Alfonso Fernandez Reinert + 3:41.492 71 3 1:20.454 158.95km/h 22.641s
18. +7 +7 Pipirelli   Yurіi Yakovenko + 5:47.201 70 2 1:22.294 156.13km/h 25.370s
19. +3 +3 Pipirelli   László Probocskai + 5:54.272 70 3 1:21.956 155.97km/h 21.566s
20. +3 +3 Pipirelli   Ivan Cel + 6:47.079 69 4 1:22.188 154.81km/h 21.610s
21. -1 -1 Pipirelli   Nora Arrastia + 8:12.751 68 4 1:21.345 152.98km/h 23.223s
Not classified   (112% race time: +13:26.697s)
22. -5 -5 Pipirelli   Ryan Njinda Tyre puncture 54 2 1:20.037    26.860s
23. -4 -4 Pipirelli   Chase Tapper Technical problems 48 1 1:26.817    22.255s
24. -16 -16 Pipirelli   Hayden Hoggard Technical problems 37 5 1:24.402    22.638s
25. -4 -4 Pipirelli   War Warboy Accident at the start 0 0 -    -